createdAt,value
2022-09-07T00:00:24.639Z,91.50
2022-09-07T00:01:27.722Z,91.80
2022-09-07T00:02:29.742Z,91.80
2022-09-07T00:03:32.917Z,91.90
2022-09-07T00:04:35.069Z,91.80
2022-09-07T00:05:43.219Z,91.50
2022-09-07T00:06:46.798Z,91.50
2022-09-07T00:07:49.835Z,91.70
2022-09-07T00:08:51.822Z,91.70
2022-09-07T00:09:54.771Z,91.90
2022-09-07T00:10:58.172Z,92.10
2022-09-07T00:12:01.120Z,91.80
2022-09-07T00:13:03.263Z,91.70
2022-09-07T00:14:07.606Z,92.60
2022-09-07T00:15:11.501Z,92.10
2022-09-07T00:16:17.125Z,92.40
2022-09-07T00:17:19.232Z,92.50
2022-09-07T00:18:22.357Z,92.30
2022-09-07T00:19:25.218Z,93.00
2022-09-07T00:20:27.253Z,92.30
2022-09-07T00:21:30.802Z,92.10
2022-09-07T00:22:34.823Z,92.40
2022-09-07T00:23:39.727Z,91.80
2022-09-07T00:24:41.703Z,91.90
2022-09-07T00:25:44.650Z,91.90
2022-09-07T00:26:47.604Z,91.60
2022-09-07T00:27:49.622Z,91.80
2022-09-07T00:28:53.834Z,91.70
2022-09-07T00:29:55.877Z,91.70
2022-09-07T00:30:58.927Z,92.20
2022-09-07T00:32:00.971Z,92.60
2022-09-07T00:33:03.892Z,92.50
2022-09-07T00:34:06.530Z,92.40
2022-09-07T00:35:10.328Z,92.10
2022-09-07T00:36:12.703Z,92.40
2022-09-07T00:37:15.739Z,92.30
2022-09-07T00:38:20.602Z,92.10
2022-09-07T00:39:23.846Z,91.90
2022-09-07T00:40:25.840Z,92.20
2022-09-07T00:41:28.851Z,92.50
2022-09-07T00:42:31.707Z,91.90
2022-09-07T00:43:36.631Z,91.90
2022-09-07T00:45:10.101Z,92.00
2022-09-07T00:46:15.445Z,92.00
2022-09-07T00:47:22.262Z,91.80
2022-09-07T00:48:27.794Z,91.90
2022-09-07T00:49:31.421Z,92.10
2022-09-07T00:50:39.376Z,92.20
2022-09-07T00:51:46.978Z,92.70
2022-09-07T00:52:52.900Z,92.30
2022-09-07T00:54:01.472Z,92.50
2022-09-07T00:55:08.066Z,92.50
2022-09-07T00:56:12.200Z,92.30
2022-09-07T00:57:14.388Z,92.50
2022-09-07T00:58:18.908Z,92.30
2022-09-07T00:59:27.264Z,92.50
2022-09-07T01:00:29.626Z,92.80
2022-09-07T01:01:34.021Z,92.40
2022-09-07T01:02:36.304Z,92.80
2022-09-07T01:03:52.562Z,92.70
2022-09-07T01:05:06.410Z,92.70
2022-09-07T01:06:17.039Z,92.60
2022-09-07T01:07:19.408Z,92.90
2022-09-07T01:08:23.627Z,92.90
2022-09-07T01:09:28.143Z,92.80
2022-09-07T01:10:33.399Z,92.70
2022-09-07T01:11:37.549Z,92.80
2022-09-07T01:12:42.263Z,92.80
2022-09-07T01:13:45.934Z,92.90
2022-09-07T01:14:53.069Z,92.90
2022-09-07T01:16:04.247Z,93.40
2022-09-07T01:17:16.319Z,92.90
2022-09-07T01:18:26.415Z,93.20
2022-09-07T01:19:54.996Z,93.50
2022-09-07T01:21:19.100Z,93.00
2022-09-07T01:22:48.579Z,93.10
2022-09-07T01:24:19.273Z,92.90
2022-09-07T01:25:34.802Z,92.80
2022-09-07T01:27:08.780Z,93.40
2022-09-07T01:28:17.352Z,93.10
2022-09-07T01:29:29.678Z,93.10
2022-09-07T01:30:37.367Z,93.30
2022-09-07T01:31:46.762Z,93.30
2022-09-07T01:33:16.454Z,94.20
2022-09-07T01:34:22.654Z,93.30
2022-09-07T01:35:40.202Z,93.80
2022-09-07T01:36:50.552Z,93.50
2022-09-07T01:38:16.094Z,93.50
2022-09-07T01:39:23.621Z,93.60
2022-09-07T01:40:38.942Z,93.50
2022-09-07T01:41:47.519Z,93.70
2022-09-07T01:42:57.086Z,93.80
2022-09-07T01:44:04.050Z,94.30
2022-09-07T01:45:11.433Z,93.90
2022-09-07T01:46:19.145Z,93.90
2022-09-07T01:47:26.835Z,93.90
2022-09-07T01:48:29.823Z,93.80
2022-09-07T01:49:38.856Z,94.20
2022-09-07T01:50:47.618Z,95.00
2022-09-07T01:51:56.634Z,95.20
2022-09-07T01:53:02.045Z,94.80
2022-09-07T01:54:11.788Z,94.80
2022-09-07T01:55:19.939Z,94.90
2022-09-07T01:56:28.905Z,95.10
2022-09-07T01:57:37.129Z,94.60
2022-09-07T01:58:44.332Z,94.70
2022-09-07T01:59:54.215Z,94.30
2022-09-07T02:01:03.628Z,94.80
2022-09-07T02:02:10.750Z,94.50
2022-09-07T02:03:15.532Z,94.70
2022-09-07T02:04:21.889Z,94.80
2022-09-07T02:05:28.002Z,94.90
2022-09-07T02:06:38.651Z,95.00
2022-09-07T02:07:45.504Z,95.00
2022-09-07T02:08:54.143Z,94.80
2022-09-07T02:10:01.171Z,94.90
2022-09-07T02:11:08.329Z,95.00
2022-09-07T02:12:18.616Z,95.10
2022-09-07T02:13:27.698Z,95.80
2022-09-07T02:14:32.234Z,95.70
2022-09-07T02:15:45.766Z,95.90
2022-09-07T02:16:54.850Z,95.70
2022-09-07T02:18:03.095Z,96.40
2022-09-07T02:19:08.767Z,95.90
2022-09-07T02:20:16.677Z,96.10
2022-09-07T02:21:24.095Z,96.80
2022-09-07T02:22:30.376Z,95.90
2022-09-07T02:23:39.986Z,96.00
2022-09-07T02:24:48.375Z,95.90
2022-09-07T02:25:55.336Z,96.40
2022-09-07T02:27:00.421Z,96.40
2022-09-07T02:28:08.211Z,96.10
2022-09-07T02:29:11.407Z,95.70
2022-09-07T02:30:13.869Z,96.00
2022-09-07T02:31:18.866Z,96.30
2022-09-07T02:32:21.247Z,96.00
2022-09-07T02:33:24.427Z,95.90
2022-09-07T02:34:26.911Z,96.00
2022-09-07T02:35:30.282Z,96.00
2022-09-07T02:36:40.333Z,96.50
2022-09-07T02:37:45.361Z,96.30
2022-09-07T02:38:47.451Z,96.80
2022-09-07T02:39:51.675Z,96.80
2022-09-07T02:40:57.167Z,96.90
2022-09-07T02:42:00.698Z,97.30
2022-09-07T02:43:06.084Z,96.80
2022-09-07T02:44:14.471Z,96.30
2022-09-07T02:45:17.296Z,96.90
2022-09-07T02:46:35.939Z,97.20
2022-09-07T02:47:49.976Z,96.90
2022-09-07T02:49:06.563Z,97.30
2022-09-07T02:50:26.796Z,97.20
2022-09-07T02:51:36.580Z,96.90
2022-09-07T02:52:48.467Z,96.90
2022-09-07T02:54:20.667Z,97.40
2022-09-07T02:55:31.235Z,98.20
2022-09-07T02:56:47.084Z,98.30
2022-09-07T02:57:59.879Z,97.80
2022-09-07T02:59:08.144Z,97.60
2022-09-07T03:00:16.546Z,97.70
2022-09-07T03:01:32.441Z,97.90
2022-09-07T03:02:42.514Z,98.50
2022-09-07T03:03:56.738Z,98.40
2022-09-07T03:05:08.230Z,98.30
2022-09-07T03:06:17.738Z,98.20
2022-09-07T03:07:24.036Z,98.10
2022-09-07T03:08:30.954Z,98.90
2022-09-07T03:09:38.480Z,99.30
2022-09-07T03:10:42.263Z,98.80
2022-09-07T03:11:44.708Z,98.70
2022-09-07T03:12:49.447Z,98.90
2022-09-07T03:13:51.747Z,98.70
2022-09-07T03:14:54.687Z,98.70
2022-09-07T03:15:57.318Z,99.10
2022-09-07T03:17:02.763Z,99.50
2022-09-07T03:18:05.079Z,99.60
2022-09-07T03:19:08.172Z,99.50
2022-09-07T03:20:10.868Z,99.20
2022-09-07T03:21:14.053Z,99.40
2022-09-07T03:22:16.107Z,99.40
2022-09-07T03:23:19.115Z,99.40
2022-09-07T03:24:21.245Z,99.80
2022-09-07T03:25:24.361Z,99.80
2022-09-07T03:26:26.744Z,99.90
2022-09-07T03:27:29.769Z,99.90
2022-09-07T03:28:32.357Z,99.90
2022-09-07T03:29:37.338Z,99.90
2022-09-07T03:30:44.054Z,99.90
2022-09-07T03:31:47.364Z,99.90
2022-09-07T03:32:51.219Z,99.90
2022-09-07T03:33:55.792Z,99.90
2022-09-07T03:34:58.459Z,99.90
2022-09-07T03:36:03.152Z,99.90
2022-09-07T03:37:06.176Z,99.90
2022-09-07T03:38:08.371Z,99.90
2022-09-07T03:39:13.898Z,99.90
2022-09-07T03:40:16.637Z,99.90
2022-09-07T03:41:19.557Z,99.90
2022-09-07T03:42:22.242Z,99.90
2022-09-07T03:43:26.377Z,99.90
2022-09-07T03:44:29.415Z,99.90
2022-09-07T03:45:31.478Z,99.90
2022-09-07T03:46:34.912Z,99.90
2022-09-07T03:47:37.568Z,99.90
2022-09-07T03:48:41.832Z,99.90
2022-09-07T03:49:44.203Z,99.90
2022-09-07T03:50:56.700Z,99.90
2022-09-07T03:51:58.703Z,99.90
2022-09-07T03:53:01.571Z,99.90
2022-09-07T03:54:03.833Z,99.90
2022-09-07T03:55:07.466Z,99.90
2022-09-07T03:56:11.890Z,99.90
2022-09-07T03:57:15.149Z,99.90
2022-09-07T03:58:17.306Z,99.90
2022-09-07T03:59:20.381Z,99.90
2022-09-07T04:00:22.501Z,99.90
2022-09-07T04:01:27.285Z,99.90
2022-09-07T04:02:29.503Z,99.90
2022-09-07T04:03:32.593Z,99.90
2022-09-07T04:04:36.191Z,99.90
2022-09-07T04:05:39.263Z,99.90
2022-09-07T04:06:41.286Z,99.90
2022-09-07T04:07:44.245Z,99.90
2022-09-07T04:08:46.597Z,99.90
2022-09-07T04:09:51.277Z,99.90
2022-09-07T04:10:53.319Z,99.90
2022-09-07T04:11:56.422Z,99.90
2022-09-07T04:12:58.451Z,99.90
2022-09-07T04:14:01.634Z,99.90
2022-09-07T04:15:04.177Z,99.90
2022-09-07T04:16:12.435Z,99.90
2022-09-07T04:17:14.490Z,99.90
2022-09-07T04:18:17.860Z,99.90
2022-09-07T04:19:20.877Z,99.90
2022-09-07T04:20:24.419Z,99.90
2022-09-07T04:21:29.504Z,99.90
2022-09-07T04:22:31.912Z,99.90
2022-09-07T04:23:34.863Z,99.90
2022-09-07T04:24:37.803Z,99.90
2022-09-07T04:25:47.125Z,99.90
2022-09-07T04:26:50.078Z,99.90
2022-09-07T04:27:52.282Z,99.90
2022-09-07T04:28:55.725Z,99.90
2022-09-07T04:29:57.729Z,99.90
2022-09-07T04:31:02.264Z,99.90
2022-09-07T04:32:05.385Z,99.90
2022-09-07T04:33:07.553Z,99.90
2022-09-07T04:34:13.032Z,99.90
2022-09-07T04:35:15.606Z,99.90
2022-09-07T04:36:22.165Z,99.90
2022-09-07T04:37:24.168Z,99.90
2022-09-07T04:38:27.725Z,99.90
2022-09-07T04:39:30.973Z,99.90
2022-09-07T04:40:33.266Z,99.90
2022-09-07T04:41:36.799Z,99.90
2022-09-07T04:42:38.829Z,99.90
2022-09-07T04:43:43.347Z,99.90
2022-09-07T04:44:45.435Z,99.90
2022-09-07T04:45:48.397Z,99.90
2022-09-07T04:46:50.537Z,99.90
2022-09-07T04:47:53.897Z,99.90
2022-09-07T04:48:58.003Z,99.90
2022-09-07T04:50:01.024Z,99.90
2022-09-07T04:51:06.429Z,99.90
2022-09-07T04:52:11.053Z,99.90
2022-09-07T04:53:13.014Z,99.90
2022-09-07T04:54:15.989Z,99.90
2022-09-07T04:55:18.918Z,99.90
2022-09-07T04:56:22.844Z,99.90
2022-09-07T04:57:26.581Z,99.90
2022-09-07T04:58:29.914Z,99.90
2022-09-07T04:59:32.171Z,99.90
2022-09-07T05:00:35.403Z,99.90
2022-09-07T05:01:38.614Z,99.90
2022-09-07T05:02:41.792Z,99.90
2022-09-07T05:03:45.527Z,99.90
2022-09-07T05:04:47.507Z,99.90
2022-09-07T05:05:50.381Z,99.90
2022-09-07T05:06:54.073Z,99.90
2022-09-07T05:07:58.895Z,99.90
2022-09-07T05:09:01.440Z,99.90
2022-09-07T05:10:05.120Z,99.90
2022-09-07T05:11:07.452Z,99.90
2022-09-07T05:12:10.776Z,99.90
2022-09-07T05:13:15.727Z,99.90
2022-09-07T05:14:18.581Z,99.90
2022-09-07T05:15:20.523Z,99.90
2022-09-07T05:16:25.681Z,99.90
2022-09-07T05:17:28.188Z,99.90
2022-09-07T05:18:31.236Z,99.90
2022-09-07T05:19:33.442Z,99.90
2022-09-07T05:20:36.351Z,99.90
2022-09-07T05:21:38.333Z,99.90
2022-09-07T05:22:41.326Z,99.90
2022-09-07T05:23:45.158Z,99.90
2022-09-07T05:24:48.840Z,99.90
2022-09-07T05:25:50.910Z,99.90
2022-09-07T05:26:54.517Z,99.90
2022-09-07T05:27:56.535Z,99.90
2022-09-07T05:31:49.360Z,99.90
2022-09-07T05:32:52.773Z,99.90
2022-09-07T05:35:19.771Z,99.90
2022-09-07T05:36:23.541Z,99.90
2022-09-07T05:37:25.537Z,99.90
2022-09-07T05:38:28.815Z,99.90
2022-09-07T05:39:32.436Z,99.90
2022-09-07T05:40:40.400Z,99.90
2022-09-07T05:41:42.913Z,99.90
2022-09-07T05:42:45.820Z,99.90
2022-09-07T05:45:13.468Z,99.90
2022-09-07T05:46:16.935Z,99.90
2022-09-07T05:47:20.028Z,99.90
2022-09-07T05:48:22.282Z,99.90
2022-09-07T05:49:25.504Z,99.90
2022-09-07T05:50:27.546Z,99.90
2022-09-07T05:51:30.696Z,99.90
2022-09-07T05:52:32.909Z,99.90
2022-09-07T05:53:36.582Z,99.90
2022-09-07T05:54:40.195Z,99.90
2022-09-07T05:55:43.071Z,99.90
2022-09-07T05:56:45.136Z,99.90
2022-09-07T05:57:48.184Z,99.90
2022-09-07T05:58:50.373Z,99.90
2022-09-07T05:59:53.431Z,99.90
2022-09-07T06:00:58.415Z,99.90
2022-09-07T06:02:01.689Z,99.90
2022-09-07T06:03:04.215Z,99.90
2022-09-07T06:04:07.280Z,99.90
2022-09-07T06:05:11.657Z,99.90
2022-09-07T06:06:16.389Z,99.90
2022-09-07T06:07:23.357Z,99.90
2022-09-07T06:08:25.688Z,99.90
2022-09-07T06:09:30.656Z,99.90
2022-09-07T06:10:45.286Z,99.90
2022-09-07T06:11:48.725Z,99.90
2022-09-07T06:12:50.886Z,99.90
2022-09-07T06:13:54.105Z,99.70
2022-09-07T06:14:56.214Z,99.90
2022-09-07T06:16:01.363Z,99.80
2022-09-07T06:17:03.465Z,99.90
2022-09-07T06:18:06.485Z,99.90
2022-09-07T06:19:09.140Z,99.40
2022-09-07T06:20:12.281Z,99.90
2022-09-07T06:21:16.098Z,99.30
2022-09-07T06:22:19.495Z,99.80
2022-09-07T06:23:21.753Z,99.90
2022-09-07T06:24:24.725Z,99.90
2022-09-07T06:25:26.734Z,99.20
2022-09-07T06:26:34.507Z,99.70
2022-09-07T06:27:37.561Z,99.80
2022-09-07T06:28:42.579Z,99.90
2022-09-07T06:29:44.560Z,98.70
2022-09-07T06:30:47.470Z,99.10
2022-09-07T06:33:16.875Z,98.80
2022-09-07T06:34:24.140Z,99.90
2022-09-07T06:35:27.084Z,97.80
2022-09-07T06:36:30.008Z,96.60
2022-09-07T06:37:31.981Z,95.90
2022-09-07T06:38:37.507Z,94.70
2022-09-07T06:39:40.486Z,94.20
2022-09-07T06:40:43.381Z,93.70
2022-09-07T06:42:03.087Z,93.10
2022-09-07T06:43:07.409Z,93.10
2022-09-07T06:44:09.847Z,92.70
2022-09-07T06:45:12.940Z,92.00
2022-09-07T06:47:38.597Z,91.90
2022-09-07T06:48:44.274Z,91.80
2022-09-07T06:49:46.540Z,92.10
2022-09-07T06:50:57.530Z,92.10
2022-09-07T06:51:59.606Z,92.10
2022-09-07T06:55:47.819Z,92.40
2022-09-07T06:56:52.217Z,91.80
2022-09-07T06:57:54.660Z,92.00
2022-09-07T06:58:58.292Z,92.10
2022-09-07T07:00:00.439Z,92.30
2022-09-07T07:01:06.746Z,92.60
2022-09-07T07:02:13.475Z,92.90
2022-09-07T07:03:15.599Z,92.70
2022-09-07T07:04:18.598Z,92.80
2022-09-07T07:05:20.570Z,92.90
2022-09-07T07:06:23.495Z,93.40
2022-09-07T07:07:25.602Z,94.00
2022-09-07T07:08:28.691Z,93.20
2022-09-07T07:09:30.672Z,93.50
2022-09-07T07:10:38.119Z,92.80
2022-09-07T07:11:40.103Z,92.60
2022-09-07T07:13:45.253Z,92.80
2022-09-07T07:14:48.233Z,92.60
2022-09-07T07:15:51.429Z,92.40
2022-09-07T07:16:54.293Z,91.70
2022-09-07T07:18:02.607Z,91.60
2022-09-07T07:19:16.676Z,91.40
2022-09-07T07:20:18.695Z,91.30
2022-09-07T07:21:21.611Z,91.80
2022-09-07T07:22:45.526Z,91.20
2022-09-07T07:23:51.167Z,90.70
2022-09-07T07:24:53.077Z,90.60
2022-09-07T07:25:55.987Z,90.00
2022-09-07T07:26:58.885Z,89.10
2022-09-07T07:29:28.202Z,88.50
2022-09-07T07:30:30.780Z,87.70
2022-09-07T07:31:34.998Z,87.10
2022-09-07T07:32:38.278Z,85.90
2022-09-07T07:33:42.220Z,87.30
2022-09-07T07:34:44.148Z,86.60
2022-09-07T07:35:47.027Z,86.10
2022-09-07T07:36:49.983Z,85.70
2022-09-07T07:37:52.899Z,86.20
2022-09-07T07:40:16.921Z,86.50
2022-09-07T07:42:49.409Z,85.20
2022-09-07T07:43:57.038Z,84.80
2022-09-07T07:46:23.589Z,84.20
2022-09-07T07:47:26.865Z,83.70
2022-09-07T07:48:29.374Z,84.00
2022-09-07T07:49:32.504Z,83.10
2022-09-07T07:50:34.851Z,83.50
2022-09-07T07:54:23.901Z,81.90
2022-09-07T07:56:49.179Z,82.40
2022-09-07T07:57:51.090Z,83.70
2022-09-07T07:58:55.239Z,83.60
2022-09-07T07:59:57.286Z,85.10
2022-09-07T08:01:04.052Z,84.00
2022-09-07T08:02:08.310Z,84.70
2022-09-07T08:03:11.327Z,84.70
2022-09-07T08:04:14.259Z,85.20
2022-09-07T08:05:17.119Z,85.90
2022-09-07T08:06:21.704Z,86.50
2022-09-07T08:07:23.796Z,86.50
2022-09-07T08:08:26.687Z,87.10
2022-09-07T08:09:28.651Z,88.30
2022-09-07T08:10:31.477Z,87.40
2022-09-07T08:11:35.425Z,87.40
2022-09-07T08:12:38.047Z,88.40
2022-09-07T08:13:42.914Z,87.20
2022-09-07T08:14:47.731Z,85.30
2022-09-07T08:15:51.047Z,86.40
2022-09-07T08:16:53.014Z,85.70
2022-09-07T08:17:56.062Z,83.00
2022-09-07T08:18:59.025Z,83.30
2022-09-07T08:20:02.059Z,84.30
2022-09-07T08:21:06.606Z,83.60
2022-09-07T08:22:10.658Z,82.60
2022-09-07T08:23:13.613Z,82.90
2022-09-07T08:24:16.676Z,81.40
2022-09-07T08:25:19.271Z,82.20
2022-09-07T08:26:22.194Z,82.80
2022-09-07T08:27:25.367Z,83.00
2022-09-07T08:28:29.673Z,81.70
2022-09-07T08:29:34.517Z,82.40
2022-09-07T08:30:41.364Z,81.80
2022-09-07T08:31:44.706Z,81.90
2022-09-07T08:32:46.712Z,81.90
2022-09-07T08:33:49.496Z,81.30
2022-09-07T08:34:51.429Z,81.80
2022-09-07T08:35:59.285Z,82.30
2022-09-07T08:37:01.164Z,82.90
2022-09-07T08:38:04.253Z,82.80
2022-09-07T08:39:06.251Z,82.80
2022-09-07T08:40:14.472Z,83.60
2022-09-07T08:41:37.729Z,82.80
2022-09-07T08:42:55.085Z,82.50
2022-09-07T08:44:01.971Z,82.40
2022-09-07T08:45:10.295Z,82.50
2022-09-07T08:46:31.766Z,83.20
2022-09-07T08:47:39.546Z,82.60
2022-09-07T08:48:42.799Z,82.20
2022-09-07T08:49:48.949Z,83.10
2022-09-07T08:50:57.591Z,84.80
2022-09-07T08:52:03.757Z,84.80
2022-09-07T08:53:13.453Z,85.20
2022-09-07T08:54:17.368Z,86.40
2022-09-07T08:55:27.829Z,87.50
2022-09-07T08:56:35.072Z,87.10
2022-09-07T08:57:41.352Z,87.80
2022-09-07T08:58:49.645Z,88.80
2022-09-07T09:00:03.062Z,88.80
2022-09-07T09:02:43.562Z,87.60
2022-09-07T09:05:24.701Z,89.30
2022-09-07T09:06:36.866Z,89.20
2022-09-07T09:07:45.194Z,89.90
2022-09-07T09:09:13.334Z,90.30
2022-09-07T09:10:30.441Z,90.60
2022-09-07T09:11:44.346Z,90.20
2022-09-07T09:13:02.609Z,90.10
2022-09-07T09:14:11.513Z,90.40
2022-09-07T09:15:22.012Z,90.90
2022-09-07T09:16:33.191Z,91.10
2022-09-07T09:17:43.207Z,91.90
2022-09-07T09:19:02.718Z,91.50
2022-09-07T09:20:17.870Z,91.80
2022-09-07T09:21:20.189Z,91.50
2022-09-07T09:22:26.636Z,91.50
2022-09-07T09:23:34.314Z,91.40
2022-09-07T09:24:41.509Z,92.10
2022-09-07T09:25:50.969Z,91.20
2022-09-07T09:26:57.205Z,91.50
2022-09-07T09:28:00.356Z,91.20
2022-09-07T09:29:12.874Z,91.20
2022-09-07T09:30:17.545Z,91.50
2022-09-07T09:31:21.715Z,91.50
2022-09-07T09:32:39.856Z,91.00
2022-09-07T09:33:42.203Z,91.40
2022-09-07T09:35:02.234Z,91.30
2022-09-07T09:36:25.542Z,91.80
2022-09-07T09:37:34.853Z,91.30
2022-09-07T09:38:40.700Z,91.90
2022-09-07T09:39:44.451Z,92.20
2022-09-07T09:40:53.452Z,91.80
2022-09-07T09:41:59.267Z,91.90
2022-09-07T09:43:03.807Z,91.90
2022-09-07T09:44:06.851Z,92.30
2022-09-07T09:45:16.329Z,91.80
2022-09-07T09:46:23.523Z,91.80
2022-09-07T09:47:30.592Z,91.40
2022-09-07T09:48:40.086Z,91.40
2022-09-07T09:49:44.528Z,91.60
2022-09-07T09:52:43.427Z,91.80
2022-09-07T09:53:51.018Z,92.00
2022-09-07T09:54:53.820Z,92.10
2022-09-07T09:55:57.342Z,92.10
2022-09-07T09:56:59.908Z,91.90
2022-09-07T10:05:19.730Z,91.70
2022-09-07T10:06:23.054Z,91.80
2022-09-07T10:07:27.471Z,91.30
2022-09-07T10:08:32.435Z,91.70
2022-09-07T10:09:38.208Z,91.40
2022-09-07T10:10:55.166Z,91.80
2022-09-07T10:12:08.251Z,91.50
2022-09-07T10:13:20.491Z,91.90
2022-09-07T10:14:28.575Z,92.30
2022-09-07T10:15:40.067Z,91.80
2022-09-07T10:16:44.188Z,91.80
2022-09-07T10:17:50.547Z,92.10
2022-09-07T10:18:58.548Z,92.20
2022-09-07T10:20:02.011Z,92.00
2022-09-07T10:21:25.953Z,92.20
2022-09-07T10:22:34.658Z,92.70
2022-09-07T10:23:36.747Z,92.50
2022-09-07T10:24:41.476Z,92.30
2022-09-07T10:25:45.208Z,92.50
2022-09-07T10:26:48.679Z,92.20
2022-09-07T10:28:01.683Z,92.80
2022-09-07T10:29:28.687Z,93.00
2022-09-07T10:30:36.688Z,92.50
2022-09-07T10:31:48.345Z,92.50
2022-09-07T10:32:59.699Z,92.60
2022-09-07T10:35:35.261Z,92.20
2022-09-07T10:36:44.177Z,91.90
2022-09-07T10:37:57.436Z,91.90
2022-09-07T10:39:03.174Z,92.40
2022-09-07T10:40:25.101Z,92.60
2022-09-07T10:41:42.306Z,91.90
2022-09-07T10:44:25.596Z,92.40
2022-09-07T10:45:38.444Z,92.10
2022-09-07T10:46:57.277Z,92.10
2022-09-07T10:48:10.632Z,92.20
2022-09-07T10:49:25.029Z,92.10
2022-09-07T10:50:31.820Z,92.30
2022-09-07T10:51:40.929Z,92.30
2022-09-07T10:52:49.296Z,92.80
2022-09-07T10:55:29.803Z,93.00
2022-09-07T10:56:35.462Z,93.00
2022-09-07T10:57:54.674Z,92.90
2022-09-07T10:59:08.272Z,93.30
2022-09-07T11:00:13.055Z,93.80
2022-09-07T11:01:22.257Z,93.10
2022-09-07T11:02:36.244Z,93.30
2022-09-07T11:03:58.348Z,92.90
2022-09-07T11:05:12.043Z,93.00
2022-09-07T11:06:21.805Z,93.00
2022-09-07T11:07:45.499Z,93.00
2022-09-07T11:09:21.952Z,92.70
2022-09-07T11:10:32.805Z,93.00
2022-09-07T11:13:08.035Z,92.30
2022-09-07T11:14:13.895Z,92.00
2022-09-07T11:15:23.507Z,91.90
2022-09-07T11:17:56.081Z,92.50
2022-09-07T11:20:29.498Z,92.90
2022-09-07T11:23:11.342Z,93.00
2022-09-07T11:24:26.906Z,92.50
2022-09-07T11:25:36.487Z,92.20
2022-09-07T11:26:43.137Z,92.80
2022-09-07T11:27:49.726Z,92.50
2022-09-07T11:30:21.523Z,92.50
2022-09-07T11:31:27.338Z,92.20
2022-09-07T11:32:32.672Z,91.80
2022-09-07T11:33:40.830Z,92.50
2022-09-07T11:34:46.840Z,92.20
2022-09-07T11:35:54.329Z,92.40
2022-09-07T11:37:01.079Z,92.80
2022-09-07T11:38:13.738Z,92.50
2022-09-07T11:39:23.072Z,92.70
2022-09-07T11:40:28.051Z,92.60
2022-09-07T11:41:34.882Z,92.30
2022-09-07T11:42:46.533Z,92.60
2022-09-07T11:43:55.128Z,92.00
2022-09-07T11:45:03.331Z,92.60
2022-09-07T11:46:11.659Z,92.80
2022-09-07T11:47:22.692Z,92.20
2022-09-07T11:48:32.274Z,92.30
2022-09-07T11:49:35.386Z,92.00
2022-09-07T11:50:42.904Z,92.10
2022-09-07T11:51:55.021Z,91.80
2022-09-07T11:53:04.165Z,92.50
2022-09-07T11:54:29.923Z,92.40
2022-09-07T11:55:36.741Z,92.50
2022-09-07T11:56:45.710Z,92.50
2022-09-07T11:58:09.568Z,92.30
2022-09-07T11:59:39.075Z,93.10
2022-09-07T12:00:51.934Z,92.50
2022-09-07T12:02:15.536Z,92.80
2022-09-07T12:03:32.355Z,92.80
2022-09-07T12:04:55.976Z,93.30
2022-09-07T12:06:53.423Z,93.10
2022-09-07T12:08:22.423Z,93.00
2022-09-07T12:09:39.852Z,93.00
2022-09-07T12:11:07.231Z,93.10
2022-09-07T12:12:43.656Z,92.90
2022-09-07T12:14:11.507Z,92.90
2022-09-07T12:15:22.362Z,93.40
2022-09-07T12:16:40.358Z,93.70
2022-09-07T12:17:58.767Z,93.60
2022-09-07T12:19:18.223Z,93.20
2022-09-07T12:20:23.819Z,93.10
2022-09-07T12:21:34.160Z,92.90
2022-09-07T12:22:38.983Z,92.70
2022-09-07T12:23:46.390Z,92.60
2022-09-07T12:24:52.413Z,92.80
2022-09-07T12:26:34.123Z,93.20
2022-09-07T12:27:38.939Z,92.80
2022-09-07T12:29:19.471Z,93.00
2022-09-07T12:30:55.261Z,92.70
2022-09-07T12:33:30.735Z,92.70
2022-09-07T12:35:01.138Z,92.60
2022-09-07T12:36:49.018Z,92.50
2022-09-07T12:37:52.258Z,92.20
2022-09-07T12:39:06.389Z,92.40
2022-09-07T12:40:57.702Z,92.20
2022-09-07T12:42:37.823Z,92.10
2022-09-07T12:43:53.582Z,92.40
2022-09-07T12:45:29.900Z,92.60
2022-09-07T12:46:46.648Z,92.50
2022-09-07T12:47:56.980Z,92.30
2022-09-07T12:49:07.485Z,92.70
2022-09-07T12:50:25.651Z,92.60
2022-09-07T12:53:22.078Z,92.50
2022-09-07T12:54:30.452Z,93.00
2022-09-07T12:57:31.928Z,93.00
2022-09-07T12:58:47.534Z,92.90
2022-09-07T13:00:04.291Z,93.30
2022-09-07T13:01:21.929Z,93.60
2022-09-07T13:02:51.477Z,93.10
2022-09-07T13:04:29.345Z,93.10
2022-09-07T13:05:44.805Z,93.20
2022-09-07T13:07:13.412Z,92.90
2022-09-07T13:08:40.469Z,92.80
2022-09-07T13:09:54.296Z,93.00
2022-09-07T13:10:57.356Z,93.60
2022-09-07T13:12:04.668Z,93.40
2022-09-07T13:13:17.689Z,93.60
2022-09-07T13:14:24.649Z,93.30
2022-09-07T13:15:41.622Z,93.10
2022-09-07T13:18:40.392Z,92.90
2022-09-07T13:20:08.403Z,93.10
2022-09-07T13:21:41.334Z,92.70
2022-09-07T13:23:21.470Z,92.90
2022-09-07T13:24:52.656Z,92.70
2022-09-07T13:25:57.410Z,93.10
2022-09-07T13:27:03.084Z,92.90
2022-09-07T13:28:13.724Z,92.70
2022-09-07T13:29:18.234Z,92.70
2022-09-07T13:30:25.746Z,93.00
2022-09-07T13:31:47.296Z,92.70
2022-09-07T13:34:41.078Z,92.60
2022-09-07T13:35:46.814Z,92.70
2022-09-07T13:36:50.580Z,92.80
2022-09-07T13:37:54.784Z,92.70
2022-09-07T13:38:58.316Z,92.90
2022-09-07T13:40:03.432Z,93.10
2022-09-07T13:41:07.968Z,93.30
2022-09-07T13:42:18.071Z,93.10
2022-09-07T13:43:23.035Z,92.90
2022-09-07T13:44:30.002Z,92.90
2022-09-07T13:45:45.653Z,93.00
2022-09-07T13:47:09.582Z,93.30
2022-09-07T13:48:21.278Z,93.30
2022-09-07T13:49:39.276Z,92.90
2022-09-07T13:50:53.314Z,93.10
2022-09-07T13:52:03.742Z,92.90
2022-09-07T13:53:20.939Z,93.00
2022-09-07T13:54:30.975Z,93.30
2022-09-07T13:55:39.285Z,93.40
2022-09-07T13:56:51.223Z,92.80
2022-09-07T13:58:05.445Z,92.60
2022-09-07T13:59:20.446Z,92.70
2022-09-07T14:00:22.816Z,92.80
2022-09-07T14:01:27.700Z,92.30
2022-09-07T14:02:33.856Z,92.60
2022-09-07T14:03:44.462Z,92.60
2022-09-07T14:04:51.051Z,92.60
2022-09-07T14:06:16.373Z,92.70
2022-09-07T14:07:22.953Z,92.50
2022-09-07T14:08:26.381Z,92.30
2022-09-07T14:09:29.406Z,92.10
2022-09-07T14:10:32.512Z,92.40
2022-09-07T14:11:41.519Z,92.00
2022-09-07T14:12:47.595Z,91.60
2022-09-07T14:14:07.951Z,91.80
2022-09-07T14:15:18.524Z,92.00
2022-09-07T14:16:20.754Z,91.70
2022-09-07T14:17:24.091Z,92.30
2022-09-07T14:18:32.866Z,92.30
2022-09-07T14:19:39.309Z,92.20
2022-09-07T14:20:44.368Z,91.90
2022-09-07T14:21:55.643Z,91.90
2022-09-07T14:22:58.845Z,91.80
2022-09-07T14:24:03.408Z,92.20
2022-09-07T14:25:09.222Z,92.50
2022-09-07T14:26:18.050Z,91.90
2022-09-07T14:27:24.658Z,92.10
2022-09-07T14:28:31.292Z,92.00
2022-09-07T14:29:36.769Z,91.80
2022-09-07T14:30:39.288Z,91.70
2022-09-07T14:31:42.296Z,91.80
2022-09-07T14:32:46.224Z,92.10
2022-09-07T14:33:52.599Z,92.50
2022-09-07T14:34:55.658Z,92.60
2022-09-07T14:35:58.997Z,92.70
2022-09-07T14:37:06.190Z,92.80
2022-09-07T14:39:48.848Z,92.50
2022-09-07T14:40:53.082Z,92.40
2022-09-07T14:41:56.671Z,92.80
2022-09-07T14:42:58.715Z,93.00
2022-09-07T14:44:02.371Z,92.80
2022-09-07T14:45:19.794Z,92.90
2022-09-07T14:46:24.530Z,92.50
2022-09-07T14:47:30.046Z,93.10
2022-09-07T14:48:34.427Z,92.80
2022-09-07T14:49:38.930Z,93.00
2022-09-07T14:50:57.081Z,93.30
2022-09-07T14:52:08.736Z,93.00
2022-09-07T14:54:41.002Z,93.00
2022-09-07T14:55:44.998Z,93.10
2022-09-07T14:57:04.794Z,93.20
2022-09-07T14:58:19.187Z,92.30
2022-09-07T14:59:36.677Z,92.50
2022-09-07T15:00:39.908Z,93.10
2022-09-07T15:01:42.927Z,92.60
2022-09-07T15:02:44.960Z,92.70
2022-09-07T15:04:02.063Z,93.00
2022-09-07T15:05:18.467Z,92.40
2022-09-07T15:08:00.446Z,92.40
2022-09-07T15:09:03.650Z,92.50
2022-09-07T15:10:25.450Z,92.30
2022-09-07T15:11:34.163Z,92.50
2022-09-07T15:12:43.087Z,92.50
2022-09-07T15:13:53.610Z,92.70
2022-09-07T15:14:55.625Z,92.10
2022-09-07T15:16:01.356Z,92.40
2022-09-07T15:18:50.677Z,92.00
2022-09-07T15:19:53.970Z,92.60
2022-09-07T15:20:57.645Z,92.00
2022-09-07T15:22:01.293Z,92.60
2022-09-07T15:23:08.261Z,92.10
2022-09-07T15:24:11.854Z,92.00
2022-09-07T15:25:15.067Z,92.00
2022-09-07T15:27:40.830Z,92.50
2022-09-07T15:30:12.133Z,92.50
2022-09-07T15:32:38.952Z,92.60
2022-09-07T15:33:41.004Z,92.80
2022-09-07T15:34:44.035Z,92.90
2022-09-07T15:35:49.505Z,92.70
2022-09-07T15:36:56.130Z,92.80